Time,TemperatureF,DewpointF,PressureIn,WindDirection,WindDirectionDegrees,WindSpeedMPH,WindSpeedGustMPH,Humidity,HourlyPrecipIn,Conditions,Clouds,dailyrainin,SoftwareType,DateUTC
2013-10-13 00:00:00,49.6,48.5,30.00,East,99,0.0,0.0,96,0.00,,---,0.00,VWS V14.00,2013-10-13 07:00:00,
2013-10-13 00:30:00,49.6,48.5,29.99,ESE,107,0.0,0.0,96,0.00,,---,0.00,VWS V14.00,2013-10-13 07:30:00,
2013-10-13 01:00:00,49.9,48.8,29.99,ESE,109,0.0,0.0,96,0.00,,---,0.00,VWS V14.00,2013-10-13 08:00:00,
2013-10-13 01:30:00,50.0,48.9,29.98,East,89,0.0,0.0,96,0.00,,---,0.00,VWS V14.00,2013-10-13 08:30:00,
2013-10-13 02:00:00,50.1,49.0,29.98,ESE,115,0.0,0.0,96,0.00,,---,0.00,VWS V14.00,2013-10-13 09:00:00,
2013-10-13 02:30:00,49.6,48.5,29.99,East,101,0.0,0.0,96,0.00,,---,0.00,VWS V14.00,2013-10-13 09:30:00,
2013-10-13 03:00:00,49.5,48.4,29.98,ESE,122,0.0,0.0,96,0.00,,---,0.00,VWS V14.00,2013-10-13 10:00:00,
2013-10-13 03:30:00,49.0,47.9,29.97,ESE,112,0.0,0.0,96,0.00,,---,0.01,VWS V14.00,2013-10-13 10:30:00,
2013-10-13 04:00:00,49.2,48.4,29.98,ESE,112,0.0,0.0,97,0.00,,---,0.01,VWS V14.00,2013-10-13 11:00:00,
2013-10-13 04:30:00,49.4,48.6,29.99,ESE,112,0.0,0.0,97,0.00,,---,0.01,VWS V14.00,2013-10-13 11:30:00,
2013-10-13 05:00:00,49.0,48.2,29.99,ESE,112,0.0,0.0,97,0.00,,---,0.01,VWS V14.00,2013-10-13 12:00:00,
2013-10-13 05:30:00,49.2,48.4,29.99,ESE,112,0.0,0.0,97,0.00,,---,0.01,VWS V14.00,2013-10-13 12:30:00,
2013-10-13 06:00:00,49.0,48.2,30.00,ESE,103,0.0,0.0,97,0.00,,---,0.01,VWS V14.00,2013-10-13 13:00:00,
2013-10-13 06:30:00,49.2,48.4,30.00,SE,134,0.0,0.0,97,0.00,,---,0.01,VWS V14.00,2013-10-13 13:30:00,
2013-10-13 07:00:00,49.5,48.7,30.01,SE,134,0.0,0.0,97,0.00,,---,0.01,VWS V14.00,2013-10-13 14:00:00,
2013-10-13 07:30:00,49.6,48.8,30.02,SE,134,0.0,0.0,97,0.00,,---,0.01,VWS V14.00,2013-10-13 14:30:00,
2013-10-13 08:00:00,49.8,49.3,30.03,SE,134,0.0,0.0,98,0.00,,---,0.01,VWS V14.00,2013-10-13 15:00:00,
2013-10-13 08:30:00,50.0,49.5,30.04,SE,134,0.0,0.0,98,0.00,,---,0.01,VWS V14.00,2013-10-13 15:30:00,
2013-10-13 09:00:00,51.0,50.5,30.05,SE,134,0.0,0.0,98,0.00,,---,0.01,VWS V14.00,2013-10-13 16:00:00,
2013-10-13 09:30:00,51.4,50.9,30.05,SE,134,0.0,0.0,98,0.00,,---,0.01,VWS V14.00,2013-10-13 16:30:00,
2013-10-13 10:00:00,52.5,52.0,30.06,SE,140,0.0,0.0,98,0.00,,---,0.01,VWS V14.00,2013-10-13 17:00:00,
2013-10-13 10:30:00,54.9,54.3,30.05,South,190,0.0,0.0,98,0.00,,---,0.01,VWS V14.00,2013-10-13 17:30:00,
2013-10-13 11:00:00,56.4,53.2,30.05,SW,229,0.0,0.0,89,0.00,,---,0.01,VWS V14.00,2013-10-13 18:00:00,
2013-10-13 11:30:00,59.5,53.3,30.05,SSE,167,0.0,0.0,80,0.00,,---,0.01,VWS V14.00,2013-10-13 18:30:00,
2013-10-13 12:00:00,60.9,53.3,30.05,SSW,210,0.0,0.0,76,0.00,,---,0.01,VWS V14.00,2013-10-13 19:00:00,
2013-10-13 12:30:00,62.9,53.8,30.04,South,170,0.0,0.0,72,0.00,,---,0.01,VWS V14.00,2013-10-13 19:30:00,
2013-10-13 13:00:00,63.6,54.0,30.03,SW,223,0.0,0.0,71,0.00,,---,0.01,VWS V14.00,2013-10-13 20:00:00,
2013-10-13 13:30:00,62.7,53.2,30.03,WSW,241,0.0,0.0,71,0.00,,---,0.01,VWS V14.00,2013-10-13 20:30:00,
2013-10-13 14:00:00,62.8,53.3,30.02,SSW,200,0.0,0.0,71,0.00,,---,0.01,VWS V14.00,2013-10-13 21:00:00,
2013-10-13 14:30:00,61.5,52.8,30.02,SSE,164,0.0,0.0,73,0.00,,---,0.01,VWS V14.00,2013-10-13 21:30:00,
2013-10-13 15:00:00,61.2,51.3,30.02,SW,234,0.0,0.0,70,0.00,,---,0.01,VWS V14.00,2013-10-13 22:00:00,
2013-10-13 15:30:00,61.8,52.3,30.02,SW,222,0.0,0.0,71,0.00,,---,0.01,VWS V14.00,2013-10-13 22:30:00,
2013-10-13 16:00:00,62.8,52.1,30.02,SE,144,0.0,0.0,68,0.00,,---,0.01,VWS V14.00,2013-10-13 23:00:00,
2013-10-13 16:30:00,60.2,52.3,30.02,SSW,198,0.0,0.0,75,0.00,,---,0.01,VWS V14.00,2013-10-13 23:30:00,
2013-10-13 17:00:00,59.4,52.2,30.02,North,0,0.0,0.0,77,0.00,,---,0.01,VWS V14.00,2013-10-14 00:00:00,
2013-10-13 17:30:00,57.1,51.7,30.03,North,0,0.0,0.0,82,0.00,,---,0.01,VWS V14.00,2013-10-14 00:30:00,
2013-10-13 18:00:00,53.2,50.0,30.03,North,0,0.0,0.0,89,0.00,,---,0.01,VWS V14.00,2013-10-14 01:00:00,
2013-10-13 18:30:00,52.1,49.8,30.04,North,0,0.0,0.0,92,0.00,,---,0.01,VWS V14.00,2013-10-14 01:30:00,
2013-10-13 19:00:00,51.8,50.1,30.05,North,0,0.0,0.0,94,0.00,,---,0.01,VWS V14.00,2013-10-14 02:00:00,
2013-10-13 19:30:00,51.4,50.0,30.06,North,0,0.0,0.0,95,0.00,,---,0.01,VWS V14.00,2013-10-14 02:30:00,
2013-10-13 20:00:00,51.4,50.0,30.06,North,0,0.0,0.0,95,0.00,,---,0.01,VWS V14.00,2013-10-14 03:00:00,
2013-10-13 20:30:00,51.4,50.0,30.07,North,0,0.0,0.0,95,0.00,,---,0.01,VWS V14.00,2013-10-14 03:30:00,
2013-10-13 21:00:00,51.1,49.7,30.07,North,0,0.0,0.0,95,0.00,,---,0.01,VWS V14.00,2013-10-14 04:00:00,
2013-10-13 21:22:00,51.1,49.7,30.07,North,0,0.0,0.0,95,0.00,,---,0.01,VWS V14.00,2013-10-14 04:22:00,
2013-10-13 21:27:00,51.5,49.8,30.08,ENE,63,0.0,0.0,94,0.00,,---,0.01,VWS V14.00,2013-10-14 04:27:00,
2013-10-13 21:30:00,51.4,50.0,30.07,North,0,0.0,0.0,95,0.00,,---,0.01,VWS V14.00,2013-10-14 04:30:00,
2013-10-13 21:32:00,51.5,49.8,30.08,ENE,63,0.0,0.0,94,0.00,,---,0.01,VWS V14.00,2013-10-14 04:32:00,
2013-10-13 21:37:00,51.5,49.5,30.07,ENE,61,0.0,0.0,93,0.00,,---,0.01,VWS V14.00,2013-10-14 04:37:00,
2013-10-13 21:42:00,51.6,49.7,30.08,ENE,61,0.0,0.0,93,0.00,,---,0.01,VWS V14.00,2013-10-14 04:42:00,
2013-10-13 21:47:00,52.0,49.8,30.07,ENE,61,0.0,0.0,92,0.00,,---,0.01,VWS V14.00,2013-10-14 04:47:00,
2013-10-13 21:52:00,52.5,49.4,30.08,NE,49,0.0,0.0,89,0.00,,---,0.01,VWS V14.00,2013-10-14 04:52:00,
2013-10-13 21:57:00,53.3,49.2,30.07,NE,49,0.0,0.0,86,0.00,,---,0.01,VWS V14.00,2013-10-14 04:57:00,
2013-10-13 22:00:00,51.1,49.7,30.07,North,0,0.0,0.0,95,0.00,,---,0.01,VWS V14.00,2013-10-14 05:00:00,
2013-10-13 22:02:00,54.2,49.2,30.08,NE,49,0.0,0.0,83,0.00,,---,0.01,VWS V14.00,2013-10-14 05:02:00,
2013-10-13 22:07:00,54.7,48.7,30.08,NE,49,0.0,0.0,80,0.00,,---,0.01,VWS V14.00,2013-10-14 05:07:00,
2013-10-13 22:12:00,54.6,48.6,30.08,NE,49,0.0,0.0,80,0.00,,---,0.01,VWS V14.00,2013-10-14 05:12:00,
2013-10-13 22:17:00,54.4,48.4,30.08,NE,49,0.0,0.0,80,0.00,,---,0.01,VWS V14.00,2013-10-14 05:17:00,
2013-10-13 22:22:00,54.2,48.2,30.08,NE,49,0.0,0.0,80,0.00,,---,0.01,VWS V14.00,2013-10-14 05:22:00,
2013-10-13 22:27:00,54.2,47.8,30.08,NE,49,0.0,0.0,79,0.00,,---,0.01,VWS V14.00,2013-10-14 05:27:00,
2013-10-13 22:30:00,51.5,49.8,30.08,ENE,63,0.0,0.0,94,0.00,,---,0.01,VWS V14.00,2013-10-14 05:30:00,
2013-10-13 22:32:00,54.5,48.1,30.08,NW,316,0.0,0.0,79,0.00,,---,0.01,VWS V14.00,2013-10-14 05:32:00,
2013-10-13 22:37:00,54.0,48.3,30.08,NW,316,0.0,0.0,81,0.00,,---,0.01,VWS V14.00,2013-10-14 05:37:00,
2013-10-13 22:42:00,53.9,47.5,30.08,NW,316,0.0,0.0,79,0.00,,---,0.01,VWS V14.00,2013-10-14 05:42:00,
2013-10-13 22:47:00,54.0,47.3,30.08,NW,316,0.0,0.0,78,0.00,,---,0.01,VWS V14.00,2013-10-14 05:47:00,
2013-10-13 22:52:00,54.0,47.0,30.08,NW,316,0.0,0.0,77,0.00,,---,0.01,VWS V14.00,2013-10-14 05:52:00,
2013-10-13 22:57:00,54.1,46.7,30.08,NW,316,0.0,0.0,76,0.00,,---,0.01,VWS V14.00,2013-10-14 05:57:00,
2013-10-13 23:00:00,53.8,49.1,30.08,NE,49,0.0,0.0,84,0.00,,---,0.01,VWS V14.00,2013-10-14 06:00:00,
2013-10-13 23:02:00,54.5,47.5,30.08,NW,316,0.0,0.0,77,0.00,,---,0.01,VWS V14.00,2013-10-14 06:02:00,
2013-10-13 23:07:00,54.4,48.7,30.08,NW,316,0.0,0.0,81,0.00,,---,0.01,VWS V14.00,2013-10-14 06:07:00,
2013-10-13 23:12:00,53.9,48.5,30.08,NW,316,0.0,0.0,82,0.00,,---,0.01,VWS V14.00,2013-10-14 06:12:00,
2013-10-13 23:17:00,53.6,48.2,30.08,NW,316,0.0,0.0,82,0.00,,---,0.01,VWS V14.00,2013-10-14 06:17:00,
2013-10-13 23:22:00,53.2,47.9,30.08,NW,316,0.0,0.0,82,0.00,,---,0.01,VWS V14.00,2013-10-14 06:22:00,
2013-10-13 23:27:00,53.0,47.7,30.08,NW,316,0.0,0.0,82,0.00,,---,0.01,VWS V14.00,2013-10-14 06:27:00,
2013-10-13 23:30:00,54.3,47.6,30.08,NE,49,0.0,0.0,78,0.00,,---,0.01,VWS V14.00,2013-10-14 06:30:00,
2013-10-13 23:32:00,52.9,47.2,30.08,NW,316,0.0,0.0,81,0.00,,---,0.01,VWS V14.00,2013-10-14 06:32:00,
2013-10-13 23:37:00,52.8,48.1,30.08,NW,316,0.0,0.0,84,0.00,,---,0.01,VWS V14.00,2013-10-14 06:37:00,
2013-10-13 23:42:00,52.5,48.1,30.08,NW,316,0.0,0.0,85,0.00,,---,0.01,VWS V14.00,2013-10-14 06:42:00,
2013-10-13 23:47:00,52.1,47.7,30.08,NW,316,0.0,0.0,85,0.00,,---,0.01,VWS V14.00,2013-10-14 06:47:00,
2013-10-13 23:52:00,51.7,47.3,30.08,NW,316,0.0,0.0,85,0.00,,---,0.01,VWS V14.00,2013-10-14 06:52:00,
2013-10-13 23:57:00,51.7,47.7,30.08,NW,316,0.0,0.0,86,0.00,,---,0.01,VWS V14.00,2013-10-14 06:57:00,